createdAt,value
2022-12-20T00:02:11.120Z,-1.43
2022-12-20T00:04:37.878Z,-1.43
2022-12-20T00:07:04.557Z,-1.43
2022-12-20T00:09:31.207Z,-1.41
2022-12-20T00:11:58.940Z,-1.43
2022-12-20T00:14:25.613Z,-1.44
2022-12-20T00:16:52.268Z,-1.41
2022-12-20T00:19:19.138Z,-1.41
2022-12-20T00:21:46.006Z,-1.43
2022-12-20T00:24:12.690Z,-1.43
2022-12-20T00:26:39.568Z,-1.41
2022-12-20T00:29:06.255Z,-1.41
2022-12-20T00:31:33.197Z,-1.41
2022-12-20T00:33:59.917Z,-1.43
2022-12-20T00:36:26.584Z,-1.43
2022-12-20T00:38:53.233Z,-1.41
2022-12-20T00:41:20.101Z,-1.41
2022-12-20T00:43:46.747Z,-1.41
2022-12-20T00:46:13.423Z,-1.40
2022-12-20T00:48:40.328Z,-1.41
2022-12-20T00:51:06.990Z,-1.41
2022-12-20T00:53:33.659Z,-1.41
2022-12-20T00:56:00.309Z,-1.38
2022-12-20T00:58:26.975Z,-1.38
2022-12-20T01:00:56.532Z,-1.40
2022-12-20T01:03:23.986Z,-1.40
2022-12-20T01:05:50.917Z,-1.41
2022-12-20T01:08:17.580Z,-1.40
2022-12-20T01:10:44.460Z,-1.40
2022-12-20T01:13:11.125Z,-1.37
2022-12-20T01:15:37.994Z,-1.38
2022-12-20T01:18:04.673Z,-1.40
2022-12-20T01:20:31.550Z,-1.41
2022-12-20T01:22:58.224Z,-1.40
2022-12-20T01:25:24.899Z,-1.40
2022-12-20T01:27:52.319Z,-1.38
2022-12-20T01:30:19.198Z,-1.38
2022-12-20T01:32:46.075Z,-1.37
2022-12-20T01:35:12.772Z,-1.40
2022-12-20T01:37:39.623Z,-1.38
2022-12-20T01:40:06.272Z,-1.38
2022-12-20T01:42:32.981Z,-1.40
2022-12-20T01:44:59.676Z,-1.40
2022-12-20T01:47:26.587Z,-1.37
2022-12-20T01:49:53.276Z,-1.37
2022-12-20T01:52:20.163Z,-1.38
2022-12-20T01:54:47.035Z,-1.38
2022-12-20T01:57:13.681Z,-1.38
2022-12-20T01:59:40.593Z,-1.38
2022-12-20T02:02:07.481Z,-1.38
2022-12-20T02:04:34.393Z,-1.36
2022-12-20T02:07:01.071Z,-1.37
2022-12-20T02:09:27.720Z,-1.38
2022-12-20T02:11:55.047Z,-1.38
2022-12-20T02:14:21.716Z,-1.37
2022-12-20T02:16:48.638Z,-1.40
2022-12-20T02:19:27.631Z,-1.34
2022-12-20T02:21:54.299Z,-1.40
2022-12-20T02:24:20.965Z,-1.37
2022-12-20T02:26:47.836Z,-1.38
2022-12-20T02:29:14.476Z,-1.37
2022-12-20T02:31:41.163Z,-1.37
2022-12-20T02:34:07.811Z,-1.38
2022-12-20T02:36:34.470Z,-1.38
2022-12-20T02:39:01.122Z,-1.37
2022-12-20T02:41:28.008Z,-1.38
2022-12-20T02:43:54.899Z,-1.37
2022-12-20T02:46:21.710Z,-1.37
2022-12-20T02:48:48.661Z,-1.36
2022-12-20T02:51:15.337Z,-1.34
2022-12-20T02:53:42.983Z,-1.36
2022-12-20T02:56:10.093Z,-1.38
2022-12-20T02:58:36.731Z,-1.38
2022-12-20T03:01:03.618Z,-1.37
2022-12-20T03:03:30.287Z,-1.38
2022-12-20T03:05:57.255Z,-1.40
2022-12-20T03:08:24.126Z,-1.36
2022-12-20T03:10:50.779Z,-1.36
2022-12-20T03:13:17.415Z,-1.36
2022-12-20T03:15:44.076Z,-1.34
2022-12-20T03:18:10.742Z,-1.36
2022-12-20T03:20:37.401Z,-1.36
2022-12-20T03:23:04.018Z,-1.36
2022-12-20T03:25:30.691Z,-1.34
2022-12-20T03:27:57.359Z,-1.34
2022-12-20T03:30:24.846Z,-1.34
2022-12-20T03:32:51.489Z,-1.37
2022-12-20T03:35:18.326Z,-1.38
2022-12-20T03:37:44.958Z,-1.34
2022-12-20T03:40:11.825Z,-1.36
2022-12-20T03:42:38.453Z,-1.36
2022-12-20T03:45:05.111Z,-1.36
2022-12-20T03:47:31.988Z,-1.34
2022-12-20T03:49:58.622Z,-1.36
2022-12-20T03:52:25.284Z,-1.33
2022-12-20T03:54:51.945Z,-1.33
2022-12-20T03:57:18.799Z,-1.36
2022-12-20T03:59:45.633Z,-1.34
2022-12-20T04:02:12.416Z,-1.36
2022-12-20T04:04:39.213Z,-1.33
2022-12-20T04:07:06.092Z,-1.34
2022-12-20T04:09:32.760Z,-1.33
2022-12-20T04:11:59.409Z,-1.34
2022-12-20T04:14:26.060Z,-1.34
2022-12-20T04:16:52.702Z,-1.31
2022-12-20T04:19:19.575Z,-1.33
2022-12-20T04:21:46.214Z,-1.31
2022-12-20T04:24:12.881Z,-1.33
2022-12-20T04:26:39.743Z,-1.34
2022-12-20T04:29:06.362Z,-1.33
2022-12-20T04:31:33.058Z,-1.30
2022-12-20T04:33:59.940Z,-1.33
2022-12-20T04:36:26.576Z,-1.33
2022-12-20T04:38:53.211Z,-1.33
2022-12-20T04:41:19.864Z,-1.31
2022-12-20T04:43:46.497Z,-1.31
2022-12-20T04:46:13.168Z,-1.31
2022-12-20T04:48:57.266Z,-1.33
2022-12-20T04:51:24.790Z,-1.33
2022-12-20T04:53:51.448Z,-1.31
2022-12-20T04:56:18.132Z,-1.31
2022-12-20T04:58:44.790Z,-1.30
2022-12-20T05:01:11.442Z,-1.30
2022-12-20T05:03:38.220Z,-1.33
2022-12-20T05:06:04.916Z,-1.31
2022-12-20T05:08:31.545Z,-1.31
2022-12-20T05:10:58.200Z,-1.33
2022-12-20T05:13:24.824Z,-1.30
2022-12-20T05:15:51.483Z,-1.31
2022-12-20T05:18:18.151Z,-1.31
2022-12-20T05:20:44.783Z,-1.33
2022-12-20T05:23:11.430Z,-1.31
2022-12-20T05:25:38.077Z,-1.30
2022-12-20T05:28:04.701Z,-1.31
2022-12-20T05:30:31.340Z,-1.30
2022-12-20T05:32:57.966Z,-1.30
2022-12-20T05:35:24.625Z,-1.30
2022-12-20T05:37:51.395Z,-1.28
2022-12-20T05:40:18.051Z,-1.31
2022-12-20T05:42:44.920Z,-1.28
2022-12-20T05:45:11.594Z,-1.30
2022-12-20T05:47:38.234Z,-1.30
2022-12-20T05:50:04.892Z,-1.30
2022-12-20T05:52:31.545Z,-1.28
2022-12-20T05:54:58.197Z,-1.30
2022-12-20T05:57:24.843Z,-1.28
2022-12-20T05:59:51.497Z,-1.31
2022-12-20T06:02:18.217Z,-1.28
2022-12-20T06:04:44.935Z,-1.28
2022-12-20T06:07:11.563Z,-1.27
2022-12-20T06:09:38.193Z,-1.27
2022-12-20T06:12:04.831Z,-1.27
2022-12-20T06:14:31.499Z,-1.28
2022-12-20T06:16:58.175Z,-1.28
2022-12-20T06:19:24.857Z,-1.30
2022-12-20T06:21:51.502Z,-1.28
2022-12-20T06:24:18.130Z,-1.27
2022-12-20T06:26:44.761Z,-1.30
2022-12-20T06:29:11.405Z,-1.27
2022-12-20T06:31:38.141Z,-1.28
2022-12-20T06:34:04.876Z,-1.28
2022-12-20T06:36:31.534Z,-1.27
2022-12-20T06:38:58.191Z,-1.28
2022-12-20T06:41:24.857Z,-1.28
2022-12-20T06:43:51.493Z,-1.27
2022-12-20T06:46:18.173Z,-1.27
2022-12-20T06:48:44.857Z,-1.26
2022-12-20T06:51:11.502Z,-1.27
2022-12-20T06:53:38.141Z,-1.26
2022-12-20T06:56:04.767Z,-1.28
2022-12-20T06:58:31.415Z,-1.27
2022-12-20T07:00:58.110Z,-1.27
2022-12-20T07:03:25.135Z,-1.26
2022-12-20T07:05:51.861Z,-1.27
2022-12-20T07:08:18.508Z,-1.27
2022-12-20T07:10:45.153Z,-1.26
2022-12-20T07:13:12.017Z,-1.27
2022-12-20T07:15:38.656Z,-1.24
2022-12-20T07:18:05.323Z,-1.27
2022-12-20T07:20:31.970Z,-1.26
2022-12-20T07:22:59.289Z,-1.24
2022-12-20T07:25:25.937Z,-1.26
2022-12-20T07:27:52.666Z,-1.23
2022-12-20T07:30:19.407Z,-1.23
2022-12-20T07:32:46.069Z,-1.24
2022-12-20T07:35:12.732Z,-1.26
2022-12-20T07:37:39.430Z,-1.26
2022-12-20T07:40:06.088Z,-1.26
2022-12-20T07:42:36.717Z,-1.24
2022-12-20T07:45:05.897Z,-1.24
2022-12-20T07:47:32.545Z,-1.21
2022-12-20T07:49:59.214Z,-1.23
2022-12-20T07:52:25.870Z,-1.26
2022-12-20T07:54:52.511Z,-1.24
2022-12-20T07:57:19.679Z,-1.23
2022-12-20T07:59:46.545Z,-1.21
2022-12-20T08:02:13.395Z,-1.23
2022-12-20T08:04:40.263Z,-1.23
2022-12-20T08:07:06.913Z,-1.23
2022-12-20T08:09:33.563Z,-1.23
2022-12-20T08:12:00.183Z,-1.23
2022-12-20T08:14:26.807Z,-1.26
2022-12-20T08:16:53.518Z,-1.21
2022-12-20T08:19:20.234Z,-1.21
2022-12-20T08:21:46.895Z,-1.21
2022-12-20T08:24:13.523Z,-1.20
2022-12-20T08:26:40.376Z,-1.21
2022-12-20T08:29:07.024Z,-1.23
2022-12-20T08:31:33.694Z,-1.20
2022-12-20T08:34:00.446Z,-1.18
2022-12-20T08:36:27.118Z,-1.18
2022-12-20T08:38:53.775Z,-1.17
2022-12-20T08:41:20.637Z,-1.17
2022-12-20T08:43:47.300Z,-1.17
2022-12-20T08:46:14.304Z,-1.17
2022-12-20T08:48:40.951Z,-1.16
2022-12-20T08:51:07.677Z,-1.14
2022-12-20T08:53:34.395Z,-1.13
2022-12-20T08:56:01.246Z,-1.14
2022-12-20T08:58:27.885Z,-1.14
2022-12-20T09:00:55.651Z,-1.13
2022-12-20T09:03:22.342Z,-1.11
2022-12-20T09:05:49.212Z,-1.13
2022-12-20T09:08:15.862Z,-1.13
2022-12-20T09:10:42.518Z,-1.13
2022-12-20T09:13:09.183Z,-1.10
2022-12-20T09:15:35.846Z,-1.10
2022-12-20T09:18:02.511Z,-1.09
2022-12-20T09:20:29.139Z,-1.10
2022-12-20T09:22:55.786Z,-1.09
2022-12-20T09:25:22.445Z,-1.10
2022-12-20T09:27:49.124Z,-1.09
2022-12-20T09:30:15.775Z,-1.09
2022-12-20T09:32:42.394Z,-1.09
2022-12-20T09:35:09.024Z,-1.10
2022-12-20T09:37:35.875Z,-1.10
2022-12-20T09:40:02.534Z,-1.06
2022-12-20T09:42:30.007Z,-1.06
2022-12-20T09:44:56.686Z,-1.09
2022-12-20T09:47:23.336Z,-1.07
2022-12-20T09:49:49.984Z,-1.07
2022-12-20T09:52:16.645Z,-1.07
2022-12-20T09:54:43.528Z,-1.04
2022-12-20T09:57:10.176Z,-1.04
2022-12-20T09:59:40.436Z,-1.06
2022-12-20T10:02:43.974Z,-1.07
2022-12-20T10:04:55.724Z,-1.04
2022-12-20T10:07:22.480Z,-1.06
2022-12-20T10:09:49.129Z,-1.03
2022-12-20T10:12:15.973Z,-1.04
2022-12-20T10:14:42.630Z,-1.06
2022-12-20T10:17:09.508Z,-1.04
2022-12-20T10:19:36.169Z,-1.04
2022-12-20T10:22:02.847Z,-1.03
2022-12-20T10:24:29.514Z,-1.03
2022-12-20T10:26:56.148Z,-1.04
2022-12-20T10:29:22.795Z,-1.06
2022-12-20T10:31:49.513Z,-1.01
2022-12-20T10:34:17.074Z,-1.00
2022-12-20T10:36:43.727Z,-1.03
2022-12-20T10:39:10.368Z,-1.01
2022-12-20T10:41:37.010Z,-1.01
2022-12-20T10:44:03.677Z,-1.00
2022-12-20T10:46:30.349Z,-1.01
2022-12-20T10:48:57.004Z,-0.99
2022-12-20T10:51:23.885Z,-0.99
2022-12-20T10:53:50.541Z,-0.99
2022-12-20T10:56:17.186Z,-0.99
2022-12-20T10:58:43.816Z,-1.00
2022-12-20T11:01:12.573Z,-0.96
2022-12-20T11:03:39.344Z,-0.95
2022-12-20T11:06:06.124Z,-0.95
2022-12-20T11:08:39.209Z,-0.92
2022-12-20T11:11:12.027Z,-0.92
2022-12-20T11:13:38.677Z,-0.92
2022-12-20T11:16:05.364Z,-0.90
2022-12-20T11:18:32.074Z,-0.85
2022-12-20T11:20:58.733Z,-0.82
2022-12-20T11:23:25.370Z,-0.79
2022-12-20T11:25:52.021Z,-0.79
2022-12-20T11:28:18.681Z,-0.80
2022-12-20T11:30:45.317Z,-0.80
2022-12-20T11:33:11.972Z,-0.82
2022-12-20T11:35:38.598Z,-0.83
2022-12-20T11:38:09.558Z,-0.85
2022-12-20T11:40:36.722Z,-0.83
2022-12-20T11:43:04.144Z,-0.85
2022-12-20T11:45:30.769Z,-0.86
2022-12-20T11:47:57.408Z,-0.86
2022-12-20T11:50:24.053Z,-0.85
2022-12-20T11:52:50.680Z,-0.82
2022-12-20T11:55:17.549Z,-0.83
2022-12-20T11:58:16.336Z,-0.83
2022-12-20T12:00:31.040Z,-0.80
2022-12-20T12:02:58.764Z,-0.80
2022-12-20T12:05:25.700Z,-0.83
2022-12-20T12:07:52.372Z,-0.82
2022-12-20T12:10:19.013Z,-0.80
2022-12-20T12:12:45.897Z,-0.77
2022-12-20T12:15:16.277Z,-0.79
2022-12-20T12:17:43.792Z,-0.77
2022-12-20T12:20:10.437Z,-0.72
2022-12-20T12:22:37.105Z,-0.65
2022-12-20T12:25:03.731Z,-0.56
2022-12-20T12:27:30.380Z,-0.52
2022-12-20T12:29:57.009Z,-0.46
2022-12-20T12:32:23.868Z,-0.39
2022-12-20T12:34:50.515Z,-0.39
2022-12-20T12:37:17.155Z,-0.32
2022-12-20T12:39:43.818Z,-0.27
2022-12-20T12:42:10.620Z,-0.19
2022-12-20T12:44:37.263Z,-0.31
2022-12-20T12:47:04.115Z,-0.36
2022-12-20T12:49:30.786Z,-0.36
2022-12-20T12:51:57.442Z,-0.28
2022-12-20T12:54:24.098Z,-0.21
2022-12-20T12:56:50.744Z,-0.13
2022-12-20T12:59:17.387Z,-0.04
2022-12-20T13:01:44.139Z,0.00
2022-12-20T13:04:10.926Z,-0.05
2022-12-20T13:06:37.560Z,0.04
2022-12-20T13:09:04.231Z,0.06
2022-12-20T13:11:30.917Z,0.11
2022-12-20T13:13:57.567Z,0.21
2022-12-20T13:16:36.043Z,0.27
2022-12-20T13:19:11.034Z,0.34
2022-12-20T13:21:37.929Z,0.30
2022-12-20T13:24:06.646Z,0.16
2022-12-20T13:26:33.339Z,0.24
2022-12-20T13:28:59.989Z,0.37
2022-12-20T13:31:26.717Z,0.21
2022-12-20T13:33:53.377Z,0.18
2022-12-20T13:36:20.028Z,0.11
2022-12-20T13:38:46.919Z,0.34
2022-12-20T13:41:13.595Z,0.41
2022-12-20T13:43:40.255Z,0.37
2022-12-20T13:46:07.001Z,0.45
2022-12-20T13:48:33.677Z,0.50
2022-12-20T13:51:00.395Z,0.47
2022-12-20T13:53:27.044Z,0.40
2022-12-20T13:55:53.681Z,0.45
2022-12-20T13:58:20.315Z,0.47
2022-12-20T14:00:46.950Z,0.55
2022-12-20T14:03:13.722Z,0.57
2022-12-20T14:05:41.364Z,0.65
2022-12-20T14:08:07.997Z,0.69
2022-12-20T14:10:34.848Z,0.72
2022-12-20T14:13:01.496Z,0.78
2022-12-20T14:15:28.187Z,0.65
2022-12-20T14:17:54.848Z,0.53
2022-12-20T14:20:21.523Z,0.44
2022-12-20T14:22:48.157Z,0.43
2022-12-20T14:25:14.813Z,0.45
2022-12-20T14:27:41.469Z,0.51
2022-12-20T14:30:08.123Z,0.58
2022-12-20T14:32:34.749Z,0.58
2022-12-20T14:35:01.395Z,0.55
2022-12-20T14:37:28.028Z,0.48
2022-12-20T14:39:54.656Z,0.41
2022-12-20T14:42:21.320Z,0.34
2022-12-20T14:44:47.996Z,0.34
2022-12-20T14:47:14.768Z,0.31
2022-12-20T14:49:41.406Z,0.26
2022-12-20T14:52:08.272Z,0.23
2022-12-20T14:55:07.121Z,0.23
2022-12-20T14:57:21.831Z,0.23
2022-12-20T14:59:48.485Z,0.18
2022-12-20T15:02:15.319Z,0.18
2022-12-20T15:04:42.095Z,0.17
2022-12-20T15:07:08.963Z,0.18
2022-12-20T15:09:35.596Z,0.16
2022-12-20T15:12:02.227Z,0.16
2022-12-20T15:14:28.855Z,0.16
2022-12-20T15:16:55.549Z,0.11
2022-12-20T15:19:22.196Z,0.14
2022-12-20T15:21:48.835Z,0.11
2022-12-20T15:24:15.488Z,0.09
2022-12-20T15:26:42.129Z,0.10
2022-12-20T15:29:08.772Z,0.09
2022-12-20T15:31:35.458Z,0.07
2022-12-20T15:34:02.240Z,0.03
2022-12-20T15:36:28.944Z,0.07
2022-12-20T15:39:11.892Z,0.07
2022-12-20T15:41:39.839Z,0.04
2022-12-20T15:44:06.492Z,0.03
2022-12-20T15:46:33.208Z,0.02
2022-12-20T15:49:00.164Z,0.02
2022-12-20T15:51:26.858Z,0.03
2022-12-20T15:53:53.534Z,0.00
2022-12-20T15:56:20.194Z,0.02
2022-12-20T15:58:46.837Z,-0.03
2022-12-20T16:01:13.536Z,0.00
2022-12-20T16:03:40.414Z,-0.01
2022-12-20T16:06:07.178Z,-0.03
2022-12-20T16:08:33.810Z,-0.01
2022-12-20T16:11:00.675Z,-0.03
2022-12-20T16:13:27.321Z,-0.03
2022-12-20T16:15:54.027Z,-0.07
2022-12-20T16:18:20.703Z,0.00
2022-12-20T16:20:47.335Z,-0.05
2022-12-20T16:23:13.984Z,-0.05
2022-12-20T16:25:40.675Z,-0.03
2022-12-20T16:28:07.303Z,-0.07
2022-12-20T16:30:33.925Z,-0.05
2022-12-20T16:33:00.797Z,-0.05
2022-12-20T16:35:27.449Z,-0.07
2022-12-20T16:37:54.115Z,-0.05
2022-12-20T16:40:20.768Z,-0.05
2022-12-20T16:42:47.427Z,-0.07
2022-12-20T16:45:14.077Z,-0.11
2022-12-20T16:47:40.708Z,-0.08
2022-12-20T16:50:07.385Z,-0.10
2022-12-20T16:52:34.046Z,-0.10
2022-12-20T16:55:00.686Z,-0.07
2022-12-20T16:57:27.325Z,-0.08
2022-12-20T16:59:53.968Z,-0.08
2022-12-20T17:02:20.679Z,-0.11
2022-12-20T17:04:47.395Z,-0.13
2022-12-20T17:07:14.048Z,-0.13
2022-12-20T17:12:24.996Z,-0.11
2022-12-20T17:14:51.654Z,-0.11
2022-12-20T17:17:18.311Z,-0.13
2022-12-20T17:19:45.018Z,-0.11
2022-12-20T17:22:24.102Z,-0.13
2022-12-20T17:24:50.760Z,-0.14
2022-12-20T17:27:17.598Z,-0.13
2022-12-20T17:29:44.230Z,-0.13
2022-12-20T17:32:10.942Z,-0.15
2022-12-20T17:34:37.650Z,-0.14
2022-12-20T17:37:04.366Z,-0.14
2022-12-20T17:39:31.015Z,-0.13
2022-12-20T17:41:57.684Z,-0.15
2022-12-20T17:44:24.345Z,-0.14
2022-12-20T17:46:50.978Z,-0.14
2022-12-20T17:49:17.845Z,-0.14
2022-12-20T17:51:44.493Z,-0.15
2022-12-20T17:54:11.125Z,-0.17
2022-12-20T17:56:37.775Z,-0.17
2022-12-20T17:59:04.406Z,-0.15
2022-12-20T18:01:31.199Z,-0.17
2022-12-20T18:04:06.200Z,-0.15
2022-12-20T18:06:33.430Z,-0.17
2022-12-20T18:09:00.122Z,-0.18
2022-12-20T18:11:26.777Z,-0.15
2022-12-20T18:13:53.413Z,-0.17
2022-12-20T18:16:20.120Z,-0.17
2022-12-20T18:18:46.800Z,-0.15
2022-12-20T18:21:13.447Z,-0.15
2022-12-20T18:23:40.324Z,-0.18
2022-12-20T18:26:06.968Z,-0.18
2022-12-20T18:28:33.616Z,-0.19
2022-12-20T18:31:00.275Z,-0.19
2022-12-20T18:33:26.918Z,-0.18
2022-12-20T18:35:53.791Z,-0.18
2022-12-20T18:38:20.421Z,-0.18
2022-12-20T18:40:47.074Z,-0.18
2022-12-20T18:43:13.735Z,-0.19
2022-12-20T18:45:40.401Z,-0.18
2022-12-20T18:48:07.069Z,-0.18
2022-12-20T18:50:33.714Z,-0.18
2022-12-20T18:53:01.830Z,-0.21
2022-12-20T18:55:28.577Z,-0.21
2022-12-20T18:57:55.225Z,-0.21
2022-12-20T19:00:21.875Z,-0.19
2022-12-20T19:02:48.567Z,-0.19
2022-12-20T19:05:15.298Z,-0.21
2022-12-20T19:07:41.965Z,-0.17
2022-12-20T19:10:08.614Z,-0.21
2022-12-20T19:12:35.259Z,-0.21
2022-12-20T19:15:01.985Z,-0.22
2022-12-20T19:17:28.647Z,-0.21
2022-12-20T19:19:55.286Z,-0.19
2022-12-20T19:22:21.925Z,-0.19
2022-12-20T19:24:48.603Z,-0.18
2022-12-20T19:27:15.262Z,-0.21
2022-12-20T19:29:41.959Z,-0.19
2022-12-20T19:32:08.808Z,-0.19
2022-12-20T19:34:35.437Z,-0.19
2022-12-20T19:37:02.086Z,-0.18
2022-12-20T19:39:28.956Z,-0.19
2022-12-20T19:44:43.281Z,-0.22
2022-12-20T19:47:10.130Z,-0.21
2022-12-20T19:49:37.032Z,-0.21
2022-12-20T19:52:03.908Z,-0.19
2022-12-20T19:54:30.753Z,-0.22
2022-12-20T19:56:57.395Z,-0.19
2022-12-20T19:59:24.052Z,-0.21
2022-12-20T20:01:50.756Z,-0.22
2022-12-20T20:04:17.447Z,-0.21
2022-12-20T20:06:44.296Z,-0.19
2022-12-20T20:09:10.937Z,-0.18
2022-12-20T20:11:37.612Z,-0.22
2022-12-20T20:14:04.321Z,-0.21
2022-12-20T20:16:31.049Z,-0.21
2022-12-20T20:18:58.517Z,-0.19
2022-12-20T20:21:25.155Z,-0.22
2022-12-20T20:23:51.997Z,-0.21
2022-12-20T20:26:18.619Z,-0.22
2022-12-20T20:28:45.707Z,-0.19
2022-12-20T20:31:12.534Z,-0.21
2022-12-20T20:33:39.314Z,-0.19
2022-12-20T20:36:06.062Z,-0.22
2022-12-20T20:38:32.702Z,-0.21
2022-12-20T20:40:59.328Z,-0.25
2022-12-20T20:43:25.956Z,-0.24
2022-12-20T20:45:52.681Z,-0.22
2022-12-20T20:48:19.366Z,-0.21
2022-12-20T20:50:46.000Z,-0.21
2022-12-20T20:53:12.660Z,-0.21
2022-12-20T20:55:39.497Z,-0.22
2022-12-20T20:58:06.146Z,-0.21
2022-12-20T21:00:32.800Z,-0.22
2022-12-20T21:02:59.718Z,-0.24
2022-12-20T21:08:13.191Z,-0.24
2022-12-20T21:10:39.938Z,-0.19
2022-12-20T21:13:06.673Z,-0.19
2022-12-20T21:15:33.335Z,-0.21
2022-12-20T21:17:59.930Z,-0.21
2022-12-20T21:20:26.774Z,-0.22
2022-12-20T21:22:53.644Z,-0.22
2022-12-20T21:25:20.483Z,-0.21
2022-12-20T21:27:47.136Z,-0.21
2022-12-20T21:30:13.810Z,-0.22
2022-12-20T21:32:40.859Z,-0.21
2022-12-20T21:35:07.504Z,-0.22
2022-12-20T21:37:34.160Z,-0.22
2022-12-20T21:40:01.060Z,-0.21
2022-12-20T21:42:27.750Z,-0.19
2022-12-20T21:44:54.387Z,-0.21
2022-12-20T21:47:21.027Z,-0.21
2022-12-20T21:49:47.677Z,-0.21
2022-12-20T21:52:14.541Z,-0.21
2022-12-20T21:54:41.193Z,-0.22
2022-12-20T21:57:08.064Z,-0.21
2022-12-20T21:59:34.728Z,-0.19
2022-12-20T22:02:01.606Z,-0.18
2022-12-20T22:04:28.305Z,-0.17
2022-12-20T22:06:54.997Z,-0.21
2022-12-20T22:09:21.650Z,-0.18
2022-12-20T22:11:48.275Z,-0.19
2022-12-20T22:14:14.919Z,-0.18
2022-12-20T22:16:41.594Z,-0.19
2022-12-20T22:19:08.250Z,-0.21
2022-12-20T22:21:34.920Z,-0.19
2022-12-20T22:24:01.583Z,-0.19
2022-12-20T22:26:28.226Z,-0.18
2022-12-20T22:28:54.858Z,-0.19
2022-12-20T22:31:21.773Z,-0.18
2022-12-20T22:33:48.479Z,-0.19
2022-12-20T22:36:15.145Z,-0.18
2022-12-20T22:38:41.835Z,-0.21
2022-12-20T22:41:08.524Z,-0.17
2022-12-20T22:43:35.163Z,-0.21
2022-12-20T22:46:01.854Z,-0.19
2022-12-20T22:48:28.563Z,-0.19
2022-12-20T22:50:55.212Z,-0.18
2022-12-20T22:53:21.872Z,-0.19
2022-12-20T22:55:48.524Z,-0.18
2022-12-20T22:58:15.389Z,-0.19
2022-12-20T23:00:42.262Z,-0.18
2022-12-20T23:03:09.239Z,-0.18
2022-12-20T23:05:36.137Z,-0.18
2022-12-20T23:08:03.005Z,-0.18
2022-12-20T23:10:29.880Z,-0.17
2022-12-20T23:12:56.510Z,-0.17
2022-12-20T23:15:23.132Z,-0.18
2022-12-20T23:17:49.790Z,-0.18
2022-12-20T23:20:16.435Z,-0.17
2022-12-20T23:22:43.110Z,-0.15
2022-12-20T23:25:09.746Z,-0.17
2022-12-20T23:27:36.572Z,-0.15
2022-12-20T23:30:03.215Z,-0.17
2022-12-20T23:32:30.019Z,-0.17
2022-12-20T23:34:56.653Z,-0.17
2022-12-20T23:37:23.317Z,-0.17
2022-12-20T23:39:50.188Z,-0.15
2022-12-20T23:42:16.829Z,-0.15
2022-12-20T23:44:43.476Z,-0.15
2022-12-20T23:47:14.220Z,-0.15
2022-12-20T23:49:43.816Z,-0.19
2022-12-20T23:52:10.488Z,-0.15
2022-12-20T23:54:37.379Z,-0.15
2022-12-20T23:57:04.015Z,-0.14
2022-12-20T23:59:30.680Z,-0.15
